FW2536 Weather Reports


Display with metric or nautical units.
time (UTC)temp
F
wind
direction
speed
MPH
gust
MPH
rain 1hr
in
rain 24hr
in
rain mn
in
humidity
%
barometer
mb
20230130053035 41 360 2.0 5.0 0.00 0.00 0.00 56 1021.9
20230130052703 42 0 3.0 8.0 0.00 0.00 0.00 56 1020.8
20230130052202 42 0 4.0 8.0 0.00 0.00 0.00 56 1020.9
20230130051703 41 0 4.0 8.0 0.00 0.00 0.00 56 1020.9
20230130051514 41 360 3.0 6.0 0.00 0.00 0.00 56 1022.1
20230130051200 42 0 3.0 6.0 0.00 0.00 0.00 55 1020.9
20230130050701 42 0 3.0 8.0 0.00 0.00 0.00 55 1020.9
20230130050507 42 0 3.0 8.0 0.00 0.00 0.00 55 1020.9
20230130050033 41 360 3.0 8.0 0.00 0.00 0.00 55 1022.1
20230130045655 42 248 3.0 6.0 0.00 0.00 0.00 55 1020.9
20230130045158 42 0 3.0 5.0 0.00 0.00 0.00 55 1020.8
20230130044656 42 0 3.0 6.0 0.00 0.00 0.00 55 1021.0
20230130044511 41 360 2.0 6.0 0.00 0.00 0.00 55 1022.1
20230130044156 42 0 3.0 6.0 0.00 0.00 0.00 55 1021.0
20230130043956 42 0 3.0 8.0 0.00 0.00 0.00 55 1021.1
20230130043145 42 0 2.0 8.0 0.00 0.00 0.00 55 1021.0
20230130043011 41 360 2.0 5.0 0.00 0.00 0.00 55 1022.2
20230130042644 42 0 3.0 4.0 0.00 0.00 0.00 54 1021.1
20230130042143 42 254 3.0 8.0 0.00 0.00 0.00 54 1021.1
20230130041643 42 256 3.0 8.0 0.00 0.00 0.00 54 1021.0
20230130041508 41 266 3.0 8.0 0.00 0.00 0.00 54 1022.1
20230130041145 42 0 3.0 7.0 0.00 0.00 0.00 54 1020.9
20230130040955 42 0 3.0 7.0 0.00 0.00 0.00 54 1020.7
20230130040143 42 0 3.0 6.0 0.00 0.00 0.00 54 1020.7
20230130040008 41 360 2.0 5.0 0.00 0.00 0.00 54 1021.8
20230130035641 42 0 3.0 5.0 0.00 0.00 0.00 54 1020.7
20230130035451 42 0 3.0 5.0 0.00 0.00 0.00 53 1020.8
20230130034638 42 0 3.0 5.0 0.00 0.00 0.00 53 1020.7
20230130034507 42 360 2.0 5.0 0.00 0.00 0.00 54 1021.9
20230130034350 42 0 2.0 4.0 0.00 0.00 0.00 54 1020.9
20230130034225 42 0 3.0 5.0 0.00 0.00 0.00 54 1021.0
20230130033137 42 0 2.0 4.0 0.00 0.00 0.00 53 1020.8
20230130033011 42 360 2.0 3.0 0.00 0.00 0.00 53 1021.9
20230130032635 42 0 2.0 3.0 0.00 0.00 0.00 53 1020.7
20230130032135 42 0 2.0 3.0 0.00 0.00 0.00 53 1020.5
20230130031637 42 0 2.0 4.0 0.00 0.00 0.00 53 1020.7
20230130031509 42 360 1.0 4.0 0.00 0.00 0.00 53 1022.0
20230130031135 42 0 3.0 5.0 0.00 0.00 0.00 53 1020.8
20230130030631 42 0 3.0 5.0 0.00 0.00 0.00 53 1020.9
20230130030436 42 0 2.0 5.0 0.00 0.00 0.00 53 1021.1
20230130030005 42 360 2.0 5.0 0.00 0.00 0.00 53 1022.2
20230130025629 42 0 2.0 4.0 0.00 0.00 0.00 53 1020.9
20230130025124 42 0 3.0 5.0 0.00 0.00 0.00 53 1020.9
20230130024617 42 0 3.0 5.0 0.00 0.00 0.00 53 1020.9
20230130024507 42 360 3.0 5.0 0.00 0.00 0.00 53 1022.1
20230130024111 42 0 2.0 5.0 0.00 0.00 0.00 53 1020.9
20230130023604 42 0 2.0 5.0 0.00 0.00 0.00 52 1020.8
20230130023104 42 0 1.0 3.0 0.00 0.00 0.00 52 1020.8
20230130023004 42 360 1.0 3.0 0.00 0.00 0.00 52 1022.0
20230130022603 42 0 2.0 4.0 0.00 0.00 0.00 52 1020.8
20230130022100 42 0 2.0 4.0 0.00 0.00 0.00 52 1020.7
20230130021602 43 0 2.0 5.0 0.00 0.00 0.00 52 1020.6
20230130021505 42 360 2.0 5.0 0.00 0.00 0.00 52 1021.9
20230130021103 43 0 2.0 6.0 0.00 0.00 0.00 52 1020.6
20230130020601 43 0 2.0 6.0 0.00 0.00 0.00 52 1020.6
20230130020410 43 0 3.0 7.0 0.00 0.00 0.00 53 1020.6
20230130020005 42 360 1.0 6.0 0.00 0.00 0.00 53 1021.9
20230130015910 43 0 3.0 7.0 0.00 0.00 0.00 53 1020.5
20230130015102 43 233 2.0 4.0 0.00 0.00 0.00 52 1020.5
20230130014602 43 0 2.0 4.0 0.00 0.00 0.00 52 1020.4
20230130014503 42 360 2.0 4.0 0.00 0.00 0.00 52 1021.8
20230130014101 43 0 2.0 8.0 0.00 0.00 0.00 52 1020.4
20230130013602 43 277 3.0 8.0 0.00 0.00 0.00 52 1020.5
20230130013103 43 244 3.0 7.0 0.00 0.00 0.00 52 1020.5
20230130013002 42 259 3.0 7.0 0.00 0.00 0.00 52 1021.7
20230130012603 43 264 3.0 6.0 0.00 0.00 0.00 52 1020.4
20230130012326 43 237 1.0 4.0 0.00 0.00 0.00 52 1020.3
20230130012157 43 259 2.0 6.0 0.00 0.00 0.00 52 1020.6
20230130011502 42 237 0.0 4.0 0.00 0.00 0.00 52 1021.5
20230130011101 43 237 1.0 7.0 0.00 0.00 0.00 52 1020.3
20230130010906 43 238 1.0 7.0 0.00 0.00 0.00 52 1020.3
20230130010321 43 276 2.0 6.0 0.00 0.00 0.00 52 1020.0
20230130010146 43 276 1.0 2.0 0.00 0.00 0.00 52 1020.3
20230130010001 43 275 0.0 2.0 0.00 0.00 0.00 52 1021.4
20230130005406 43 279 2.0 6.0 0.00 0.00 0.00 52 1019.9
20230130004600 43 229 1.0 4.0 0.00 0.00 0.00 52 1021.0
20230130004555 43 229 2.0 4.0 0.00 0.00 0.00 52 1019.9
20230130004056 43 229 2.0 7.0 0.00 0.00 0.00 52 1019.5
20230130003556 43 240 3.0 7.0 0.00 0.00 0.00 52 1019.3
20230130003105 43 229 4.0 9.0 0.00 0.00 0.00 52 1020.8
20230130003055 44 229 4.0 9.0 0.00 0.00 0.00 52 1019.7
20230130002556 44 232 4.0 9.0 0.00 0.00 0.00 51 1019.9
20230130002055 44 207 3.0 8.0 0.00 0.00 0.00 51 1019.9
20230130001616 43 221 2.0 11.0 0.00 0.00 0.00 52 1021.0
20230130001556 44 219 3.0 11.0 0.00 0.00 0.00 52 1019.9
20230130001055 44 259 4.0 11.0 0.00 0.00 0.00 51 1019.8
20230130000555 44 225 5.0 11.0 0.00 0.00 0.00 51 1019.8
20230130000101 43 233 2.0 14.0 0.00 0.00 0.00 51 1021.0
20230130000055 44 226 6.0 14.0 0.00 0.00 0.00 51 1019.9
20230129235900 44 248 5.0 14.0 0.00 0.00 0.00 51 1020.0
20230129235403 44 287 5.0 9.0 0.00 0.00 0.00 50 1019.8
20230129234603 43 224 4.0 10.0 0.00 0.00 0.00 50 1020.8
20230129234557 44 247 5.0 10.0 0.00 0.00 0.00 50 1019.7
20230129234050 44 273 4.0 9.0 0.00 0.00 0.00 50 1019.7
20230129233546 44 269 4.0 10.0 0.00 0.00 0.00 50 1019.6
20230129233056 43 250 3.0 10.0 0.00 0.00 0.00 50 1020.7
20230129233042 44 229 4.0 10.0 0.00 0.00 0.00 50 1019.7
20230129232539 44 220 4.0 9.0 0.00 0.00 0.00 50 1019.6
20230129232040 44 271 4.0 10.0 0.00 0.00 0.00 50 1019.6
20230129231559 43 250 3.0 10.0 0.00 0.00 0.00 50 1020.7
20230129231540 44 272 5.0 10.0 0.00 0.00 0.00 50 1019.6
20230129231039 44 0 4.0 10.0 0.00 0.00 0.00 50 1019.7
20230129230539 44 0 3.0 8.0 0.00 0.00 0.00 49 1019.6
20230129230055 43 263 3.0 8.0 0.00 0.00 0.00 49 1020.4
20230129230040 44 0 2.0 8.0 0.00 0.00 0.00 49 1019.4
20230129225849 44 0 3.0 8.0 0.00 0.00 0.00 49 1019.3
20230129225347 43 0 3.0 6.0 0.00 0.00 0.00 48 1019.3
20230129224554 43 360 2.0 8.0 0.00 0.00 0.00 47 1020.5
20230129224541 44 0 4.0 8.0 0.00 0.00 0.00 47 1019.3
20230129224039 44 0 4.0 8.0 0.00 0.00 0.00 47 1019.2
20230129223537 44 259 4.0 9.0 0.00 0.00 0.00 47 1019.3
20230129223054 44 242 4.0 9.0 0.00 0.00 0.00 47 1020.2
20230129223038 44 0 4.0 9.0 0.00 0.00 0.00 46 1019.2
20230129222539 44 0 4.0 9.0 0.00 0.00 0.00 46 1019.1
20230129222346 44 0 4.0 9.0 0.00 0.00 0.00 46 1019.4
20230129221553 44 360 4.0 14.0 0.00 0.00 0.00 46 1020.4
20230129221537 44 0 5.0 14.0 0.00 0.00 0.00 46 1019.4
20230129221345 44 0 5.0 14.0 0.00 0.00 0.00 45 1019.3
20230129220536 44 0 4.0 9.0 0.00 0.00 0.00 45 1019.1
20230129220105 44 360 3.0 9.0 0.00 0.00 0.00 45 1019.8
20230129220038 44 0 4.0 10.0 0.00 0.00 0.00 45 1018.9
20230129215534 44 0 4.0 10.0 0.00 0.00 0.00 45 1018.7
20230129215034 45 0 5.0 11.0 0.00 0.00 0.00 45 1018.7
20230129214551 44 360 5.0 11.0 0.00 0.00 0.00 45 1019.6
20230129214535 45 0 4.0 11.0 0.00 0.00 0.00 44 1018.6
20230129214033 45 0 3.0 9.0 0.00 0.00 0.00 44 1018.7
20230129213532 45 0 3.0 8.0 0.00 0.00 0.00 44 1018.7
20230129213057 45 360 3.0 8.0 0.00 0.00 0.00 45 1019.8
20230129213034 45 0 4.0 8.0 0.00 0.00 0.00 45 1018.8
20230129212838 45 254 3.0 8.0 0.00 0.00 0.00 45 1018.8
20230129212034 45 0 4.0 8.0 0.00 0.00 0.00 45 1018.7
20230129211845 45 0 4.0 8.0 0.00 0.00 0.00 45 1018.7
20230129211552 45 250 3.0 7.0 0.00 0.00 0.00 45 1019.6
20230129211035 45 0 3.0 8.0 0.00 0.00 0.00 44 1018.7
20230129210537 45 0 3.0 6.0 0.00 0.00 0.00 44 1018.7
20230129210051 45 254 3.0 7.0 0.00 0.00 0.00 43 1019.6
20230129210035 45 255 3.0 7.0 0.00 0.00 0.00 43 1018.6
20230129205534 45 247 3.0 7.0 0.00 0.00 0.00 43 1018.7
20230129205034 45 0 3.0 5.0 0.00 0.00 0.00 43 1018.7
20230129204548 45 360 3.0 5.0 0.00 0.00 0.00 42 1019.6
20230129204533 45 0 3.0 6.0 0.00 0.00 0.00 43 1018.7
20230129204033 45 0 2.0 6.0 0.00 0.00 0.00 42 1018.7
20230129203535 45 0 3.0 8.0 0.00 0.00 0.00 42 1018.8
20230129203049 45 360 2.0 10.0 0.00 0.00 0.00 42 1019.7
20230129203031 45 0 3.0 10.0 0.00 0.00 0.00 42 1018.8
20230129202531 46 0 3.0 10.0 0.00 0.00 0.00 42 1018.7
20230129202030 46 0 3.0 8.0 0.00 0.00 0.00 42 1018.7
20230129201835 46 0 2.0 8.0 0.00 0.00 0.00 42 1018.6
20230129201559 45 360 3.0 6.0 0.00 0.00 0.00 42 1019.6
20230129201032 46 0 3.0 8.0 0.00 0.00 0.00 42 1018.6
20230129200530 46 0 4.0 11.0 0.00 0.00 0.00 42 1018.6
20230129200342 46 0 3.0 11.0 0.00 0.00 0.00 42 1018.6
20230129200047 45 360 4.0 11.0 0.00 0.00 0.00 42 1019.4
20230129195531 46 0 2.0 6.0 0.00 0.00 0.00 43 1018.5
20230129195030 46 0 1.0 3.0 0.00 0.00 0.00 43 1018.2
20230129194646 45 360 0.0 3.0 0.00 0.00 0.00 43 1019.2
20230129194529 46 0 1.0 3.0 0.00 0.00 0.00 43 1018.3
20230129194031 46 0 2.0 5.0 0.00 0.00 0.00 43 1018.3
20230129193529 46 0 2.0 5.0 0.00 0.00 0.00 43 1018.3
20230129193045 45 360 1.0 6.0 0.00 0.00 0.00 43 1019.3
20230129193030 46 0 2.0 6.0 0.00 0.00 0.00 43 1018.3
20230129192530 46 263 2.0 6.0 0.00 0.00 0.00 43 1017.9
20230129192029 46 223 2.0 4.0 0.00 0.00 0.00 42 1017.9
20230129191608 46 251 1.0 6.0 0.00 0.00 0.00 42 1019.1
20230129191531 46 251 2.0 6.0 0.00 0.00 0.00 42 1018.2
20230129191030 46 242 2.0 6.0 0.00 0.00 0.00 43 1018.2
20230129190527 46 244 3.0 8.0 0.00 0.00 0.00 42 1018.2
20230129190044 46 281 2.0 8.0 0.00 0.00 0.00 42 1019.0
20230129190025 46 242 3.0 8.0 0.00 0.00 0.00 42 1018.2
20230129185525 47 211 2.0 6.0 0.00 0.00 0.00 43 1018.4
20230129185024 46 194 2.0 4.0 0.00 0.00 0.00 43 1018.4
20230129184548 45 226 2.0 7.0 0.00 0.00 0.00 44 1019.3
20230129184524 45 242 3.0 7.0 0.00 0.00 0.00 44 1018.5
20230129184024 45 257 3.0 7.0 0.00 0.00 0.00 44 1018.5
20230129183524 45 265 3.0 7.0 0.00 0.00 0.00 45 1018.4
20230129183040 44 265 2.0 7.0 0.00 0.00 0.00 44 1019.5
20230129183023 45 263 2.0 7.0 0.00 0.00 0.00 44 1018.6
20230129182837 45 261 2.0 4.0 0.00 0.00 0.00 44 1018.6
20230129182331 45 254 2.0 4.0 0.00 0.00 0.00 44 1018.7
20230129181537 44 238 1.0 7.0 0.00 0.00 0.00 44 1019.7
20230129181523 45 242 2.0 7.0 0.00 0.00 0.00 44 1018.9
20230129181017 45 213 2.0 7.0 0.00 0.00 0.00 44 1019.0
20230129180516 45 281 2.0 6.0 0.00 0.00 0.00 44 1019.1
20230129180042 44 260 2.0 6.0 0.00 0.00 0.00 44 1020.1
20230129180016 45 260 2.0 6.0 0.00 0.00 0.00 44 1019.3
20230129175516 45 229 2.0 6.0 0.00 0.00 0.00 44 1019.2
20230129175018 45 0 2.0 6.0 0.00 0.00 0.00 44 1019.4
20230129174532 45 225 2.0 5.0 0.00 0.00 0.00 44 1020.4
20230129174512 45 235 2.0 6.0 0.00 0.00 0.00 44 1019.5
20230129174003 45 242 4.0 8.0 0.00 0.00 0.00 44 1019.5
20230129173457 45 249 4.0 8.0 0.00 0.00 0.00 44 1019.5
20230129173031 45 262 3.0 9.0 0.00 0.00 0.00 44 1020.5
20230129172951 45 263 4.0 9.0 0.00 0.00 0.00 44 1019.6
20230129172446 45 269 4.0 9.0 0.00 0.00 0.00 44 1019.8
20230129171940 45 249 3.0 9.0 0.00 0.00 0.00 45 1019.8
20230129171531 44 283 2.0 5.0 0.00 0.00 0.00 46 1021.0
20230129171438 45 232 3.0 6.0 0.00 0.00 0.00 47 1020.1
20230129170940 44 224 2.0 4.0 0.00 0.00 0.00 47 1019.9
20230129170439 44 236 2.0 7.0 0.00 0.00 0.00 48 1019.8
20230129170023 43 265 2.0 7.0 0.00 0.00 0.00 48 1021.1
20230129165936 44 271 2.0 7.0 0.00 0.00 0.00 48 1020.1
20230129165436 43 234 2.0 5.0 0.00 0.00 0.00 49 1020.1
20230129164936 42 215 2.0 3.0 0.00 0.00 0.00 50 1020.2
20230129164519 42 211 1.0 3.0 0.00 0.00 0.00 49 1021.1
20230129164437 42 211 1.0 3.0 0.00 0.00 0.00 49 1020.1
20230129163937 42 234 1.0 3.0 0.00 0.00 0.00 51 1020.2
20230129163555 41 234 0.0 2.0 0.00 0.00 0.00 51 1020.6
20230129163455 41 234 1.0 2.0 0.00 0.00 0.00 51 1020.3
20230129163436 41 234 0.0 2.0 0.00 0.00 0.00 50 1020.3
20230129163015 40 234 0.0 2.0 0.00 0.00 0.00 51 1021.3
20230129161932 40 234 0.0 1.0 0.00 0.00 0.00 51 1020.7
20230129161513 40 234 0.0 1.0 0.00 0.00 0.00 51 1021.7
20230129161432 40 234 0.0 1.0 0.00 0.00 0.00 51 1020.6
20230129160934 40 234 0.0 1.0 0.00 0.00 0.00 51 1020.5
20230129160736 40 232 0.0 2.0 0.00 0.00 0.00 51 1020.8
20230129160009 39 232 0.0 2.0 0.00 0.00 0.00 51 1022.1
20230129155932 40 232 0.0 2.0 0.00 0.00 0.00 51 1021.0
20230129155725 39 233 0.0 2.0 0.00 0.00 0.00 51 1021.2
20230129154930 39 232 1.0 2.0 0.00 0.00 0.00 51 1021.7
20230129154512 39 232 0.0 1.0 0.00 0.00 0.00 51 1022.7
20230129154428 40 232 0.0 1.0 0.00 0.00 0.00 51 1021.6
20230129153922 40 232 1.0 3.0 0.00 0.00 0.00 50 1021.8
20230129153416 40 0 1.0 4.0 0.00 0.00 0.00 50 1021.8
20230129153016 40 256 2.0 4.0 0.00 0.00 0.00 50 1023.1
20230129152908 40 256 1.0 4.0 0.00 0.00 0.00 50 1022.0
20230129152405 40 229 1.0 3.0 0.00 0.00 0.00 49 1021.7
20230129151902 40 0 1.0 3.0 0.00 0.00 0.00 49 1021.8
20230129151705 40 0 2.0 4.0 0.00 0.00 0.00 49 1022.2
20230129151505 40 360 1.0 4.0 0.00 0.00 0.00 49 1023.2
20230129151215 40 0 2.0 4.0 0.00 0.00 0.00 50 1022.2
20230129150402 40 233 1.0 3.0 0.00 0.00 0.00 50 1021.9
20230129150002 39 360 1.0 3.0 0.00 0.00 0.00 50 1022.9
20230129145900 40 0 1.0 3.0 0.00 0.00 0.00 50 1021.8
20230129145401 39 232 2.0 3.0 0.00 0.00 0.00 50 1021.8
20230129144902 39 232 2.0 3.0 0.00 0.00 0.00 50 1021.9
20230129144629 40 0 1.0 3.0 0.00 0.00 0.00 50 1021.9
20230129144501 39 360 1.0 3.0 0.00 0.00 0.00 50 1023.1
20230129144454 39 227 1.0 3.0 0.00 0.00 0.00 51 1022.0
20230129143401 40 0 1.0 3.0 0.00 0.00 0.00 50 1022.1
20230129143100 39 225 1.0 3.0 0.00 0.00 0.00 51 1023.2
20230129142902 40 0 0.0 2.0 0.00 0.00 0.00 51 1022.2
20230129142402 40 0 0.0 1.0 0.00 0.00 0.00 51 1022.2
20230129141903 40 0 0.0 1.0 0.00 0.00 0.00 51 1022.5
20230129141606 40 0 0.0 2.0 0.00 0.00 0.00 50 1022.4
20230129141559 39 360 0.0 0.0 0.00 0.00 0.00 51 1023.4
20230129141451 40 0 0.0 1.0 0.00 0.00 0.00 51 1022.3
20230129140401 40 0 1.0 2.0 0.00 0.00 0.00 49 1022.3
20230129140056 40 360 0.0 2.0 0.00 0.00 0.00 48 1023.5
20230129135903 40 0 1.0 2.0 0.00 0.00 0.00 49 1022.4
20230129135707 40 0 0.0 2.0 0.00 0.00 0.00 48 1022.4
20230129135203 40 0 0.0 0.0 0.00 0.00 0.00 48 1022.3
20230129134600 40 360 0.0 0.0 0.00 0.00 0.00 48 1023.5
20230129134357 40 0 0.0 0.0 0.00 0.00 0.00 48 1022.4
20230129133853 40 0 0.0 0.0 0.00 0.00 0.00 48 1022.4
20230129133652 40 0 0.0 2.0 0.00 0.00 0.00 48 1022.2
20230129133052 40 360 0.0 2.0 0.00 0.00 0.00 47 1023.5
20230129132851 40 0 1.0 2.0 0.00 0.00 0.00 47 1022.5
20230129132658 40 0 1.0 4.0 0.00 0.00 0.00 47 1022.6
20230129131851 40 0 2.0 4.0 0.00 0.00 0.00 47 1022.7
20230129131556 40 360 1.0 4.0 0.00 0.00 0.00 47 1024.0
20230129131350 40 0 2.0 5.0 0.00 0.00 0.00 47 1022.9
20230129130850 40 0 3.0 5.0 0.00 0.00 0.00 48 1023.0
20230129130705 40 0 3.0 5.0 0.00 0.00 0.00 48 1022.9
20230129130046 39 360 3.0 8.0 0.00 0.00 0.00 49 1023.9
20230129125849 39 0 3.0 8.0 0.00 0.00 0.00 49 1022.5
20230129125656 39 0 3.0 8.0 0.00 0.00 0.00 50 1022.5
20230129124848 38 0 3.0 6.0 0.00 0.00 0.00 52 1022.4
20230129124701 36 0 2.0 6.0 0.00 0.00 0.00 54 1022.4
20230129124545 37 360 1.0 6.0 0.00 0.00 0.00 54 1023.5
20230129124154 35 0 0.0 6.0 0.00 0.00 0.00 54 1022.3
20230129123349 35 0 1.0 3.0 0.00 0.00 0.00 54 1022.3
20230129123111 35 360 0.0 4.0 0.00 0.00 0.00 53 1023.6
20230129122850 36 0 1.0 4.0 0.00 0.00 0.00 53 1022.3
20230129122349 37 0 1.0 4.0 0.00 0.00 0.00 52 1022.3
20230129121847 37 0 2.0 3.0 0.00 0.00 0.00 55 1022.1
20230129121541 36 360 1.0 3.0 0.00 0.00 0.00 57 1023.5
20230129121345 36 0 2.0 3.0 0.00 0.00 0.00 58 1022.2
20230129120843 34 0 1.0 3.0 0.00 0.00 0.00 61 1022.3
20230129120646 33 0 1.0 2.0 0.00 0.00 0.00 61 1022.6
20230129120035 32 360 0.0 2.0 0.00 0.00 0.00 61 1024.0
20230129115840 33 0 0.0 3.0 0.00 0.00 0.00 60 1022.7
20230129115340 33 0 0.0 3.0 0.00 0.00 0.00 60 1022.7
20230129114841 32 0 0.0 3.0 0.00 0.00 0.00 60 1022.7
20230129114532 32 360 0.0 3.0 0.00 0.00 0.00 60 1024.1
20230129114339 32 0 1.0 3.0 0.00 0.00 0.00 61 1022.9
20230129113836 32 0 1.0 3.0 0.00 0.00 0.00 61 1023.1
20230129113337 32 0 0.0 1.0 0.00 0.00 0.00 61 1023.0
20230129113031 31 360 0.0 1.0 0.00 0.00 0.00 61 1024.3
20230129112838 32 0 0.0 2.0 0.00 0.00 0.00 61 1023.1
20230129112335 32 0 1.0 2.0 0.00 0.00 0.00 61 1023.1
20230129111838 32 0 0.0 2.0 0.00 0.00 0.00 61 1023.2
20230129111530 31 360 1.0 2.0 0.00 0.00 0.00 61 1024.5
20230129111331 32 0 0.0 2.0 0.00 0.00 0.00 61 1023.3
20230129110832 32 0 0.0 1.0 0.00 0.00 0.00 61 1023.4
20230129110330 31 0 1.0 2.0 0.00 0.00 0.00 61 1023.5
20230129110030 31 80 0.0 2.0 0.00 0.00 0.00 61 1024.5
20230129105830 31 80 1.0 2.0 0.00 0.00 0.00 61 1023.3
20230129105332 31 80 0.0 2.0 0.00 0.00 0.00 61 1023.5
20230129104830 31 80 1.0 2.0 0.00 0.00 0.00 61 1023.5
20230129104543 31 79 0.0 2.0 0.00 0.00 0.00 61 1024.7
20230129104331 31 80 1.0 2.0 0.00 0.00 0.00 61 1023.6
20230129103830 31 80 0.0 1.0 0.00 0.00 0.00 61 1023.7
20230129103329 31 80 1.0 1.0 0.00 0.00 0.00 60 1023.5
20230129103024 31 80 0.0 1.0 0.00 0.00 0.00 60 1024.7
20230129102829 31 80 0.0 1.0 0.00 0.00 0.00 60 1023.6
20230129102329 31 80 0.0 1.0 0.00 0.00 0.00 60 1023.7
20230129101829 31 79 0.0 2.0 0.00 0.00 0.00 60 1023.6
20230129101523 31 79 0.0 2.0 0.00 0.00 0.00 60 1025.0
20230129101329 32 80 0.0 2.0 0.00 0.00 0.00 60 1023.7
20230129101138 32 80 0.0 1.0 0.00 0.00 0.00 60 1023.9
20230129100629 32 80 0.0 1.0 0.00 0.00 0.00 61 1024.0
20230129100019 31 80 0.0 1.0 0.00 0.00 0.00 61 1025.3
20230129095830 31 80 0.0 2.0 0.00 0.00 0.00 60 1024.0
20230129095330 31 80 1.0 2.0 0.00 0.00 0.00 60 1024.0
20230129094830 31 80 1.0 2.0 0.00 0.00 0.00 60 1024.1
20230129094523 31 79 0.0 2.0 0.00 0.00 0.00 60 1025.3
20230129094328 31 79 1.0 2.0 0.00 0.00 0.00 60 1024.1
20230129093827 31 79 1.0 2.0 0.00 0.00 0.00 60 1024.3
20230129093537 31 79 1.0 2.0 0.00 0.00 0.00 60 1024.2
20230129093417 31 79 1.0 2.0 0.00 0.00 0.00 60 1024.2
20230129093022 31 79 0.0 2.0 0.00 0.00 0.00 60 1025.4
20230129092327 31 79 0.0 2.0 0.00 0.00 0.00 60 1024.3
20230129091826 31 79 0.0 2.0 0.00 0.00 0.00 60 1024.2
20230129091521 31 79 0.0 1.0 0.00 0.00 0.00 60 1025.5
20230129091326 31 79 0.0 1.0 0.00 0.00 0.00 60 1024.3
20230129091129 31 79 0.0 1.0 0.00 0.00 0.00 60 1024.4
20230129090328 31 80 0.0 1.0 0.00 0.00 0.00 60 1024.4
20230129090014 31 79 0.0 0.0 0.00 0.00 0.00 60 1025.6
20230129085823 31 79 0.0 0.0 0.00 0.00 0.00 60 1024.4
20230129085627 31 0 0.0 0.0 0.00 0.00 0.00 60 1024.3
20230129084822 31 0 0.0 0.0 0.00 0.00 0.00 59 1024.3
20230129084521 31 360 0.0 0.0 0.00 0.00 0.00 60 1025.6
20230129084320 31 0 0.0 0.0 0.00 0.00 0.00 60 1024.3
20230129083819 31 0 0.0 0.0 0.00 0.00 0.00 60 1024.3
20230129083318 31 0 0.0 0.0 0.00 0.00 0.00 60 1024.4
20230129083014 30 360 0.0 0.0 0.00 0.00 0.00 60 1025.7
20230129082813 31 0 0.0 1.0 0.00 0.00 0.00 60 1024.4
20230129082312 31 0 0.0 1.0 0.00 0.00 0.00 60 1024.5
20230129081813 31 0 1.0 2.0 0.00 0.00 0.00 60 1024.4
20230129081515 30 360 0.0 2.0 0.00 0.00 0.00 59 1025.8
20230129081312 31 0 1.0 2.0 0.00 0.00 0.00 60 1024.6
20230129080813 31 0 1.0 2.0 0.00 0.00 0.00 60 1024.7
20230129080309 31 0 0.0 2.0 0.00 0.00 0.00 59 1024.7
20230129080113 31 360 0.0 2.0 0.00 0.00 0.00 59 1026.0
20230129075810 31 0 0.0 2.0 0.00 0.00 0.00 59 1024.9
20230129075307 31 0 0.0 2.0 0.00 0.00 0.00 59 1025.0
20230129074802 31 0 1.0 2.0 0.00 0.00 0.00 59 1025.1
20230129074507 31 360 0.0 2.0 0.00 0.00 0.00 59 1026.1
20230129074303 31 0 1.0 2.0 0.00 0.00 0.00 59 1025.1
20230129074012 31 0 2.0 3.0 0.00 0.00 0.00 58 1025.0
20230129073851 31 0 1.0 3.0 0.00 0.00 0.00 58 1025.1
20230129073006 31 80 1.0 3.0 0.00 0.00 0.00 58 1026.1
20230129072801 31 80 1.0 3.0 0.00 0.00 0.00 58 1025.1
20230129072255 31 0 2.0 3.0 0.00 0.00 0.00 57 1025.1
20230129071749 32 0 2.0 3.0 0.00 0.00 0.00 57 1025.2
20230129071506 31 360 2.0 3.0 0.00 0.00 0.00 57 1026.2
20230129071242 32 0 1.0 3.0 0.00 0.00 0.00 57 1025.1
20230129070737 32 0 1.0 3.0 0.00 0.00 0.00 58 1025.2
20230129070230 31 0 1.0 3.0 0.00 0.00 0.00 58 1025.1
20230129070004 31 360 1.0 3.0 0.00 0.00 0.00 58 1026.3
20230129065728 31 0 1.0 3.0 0.00 0.00 0.00 58 1025.2
20230129065535 31 0 1.0 3.0 0.00 0.00 0.00 58 1025.2
20230129064731 31 0 1.0 3.0 0.00 0.00 0.00 58 1025.3
20230129064501 31 360 1.0 3.0 0.00 0.00 0.00 58 1026.4
20230129064229 31 0 1.0 2.0 0.00 0.00 0.00 58 1025.2
20230129063729 31 0 1.0 2.0 0.00 0.00 0.00 58 1025.2
20230129063230 31 0 1.0 1.0 0.00 0.00 0.00 58 1025.2
20230129063101 31 360 0.0 1.0 0.00 0.00 0.00 58 1026.4
20230129062730 31 0 0.0 2.0 0.00 0.00 0.00 58 1025.2
20230129062536 31 0 0.0 2.0 0.00 0.00 0.00 58 1025.2
20230129061729 31 0 0.0 0.0 0.00 0.00 0.00 59 1025.3
20230129061616 30 360 0.0 0.0 0.00 0.00 0.00 59 1026.4
20230129061229 31 0 0.0 0.0 0.00 0.00 0.00 59 1025.3
20230129060732 31 0 0.0 0.0 0.00 0.00 0.00 59 1025.3
20230129060231 31 0 0.0 0.0 0.00 0.00 0.00 58 1025.3
20230129060100 30 360 0.0 1.0 0.00 0.00 0.00 58 1026.4
20230129055730 31 0 0.0 2.0 0.00 0.00 0.00 58 1025.3
20230129055230 31 0 0.0 2.0 0.00 0.00 0.00 58 1025.3
20230129054730 31 0 0.0 1.0 0.00 0.00 0.00 58 1025.3
20230129054558 31 360 0.0 1.0 0.00 0.00 0.00 58 1026.6
20230129054230 31 0 1.0 2.0 0.00 0.00 0.00 58 1025.4
20230129053723 31 0 1.0 2.0 0.00 0.00 0.00 57 1025.4